Share

Akhiok, AK

9:00 PM AKDT on April 24, 2014 (GMT -0800)
Kodiak (PADQ) Elev 112 ft | 57.75 °N, 152.49 °W | Change Station

Current weather conditions updated 7 minutes ago

Overcast
Overcast
41 °F
Feels Like 36 °F
N
8
Wind Variable Wind from East
Sunrise 6:45 AM
Sunset 9:45 PM
Moon Waning Crescent

Tomorrow is forecast to be Cooler than today. Windy with periods of rain.

Pressure 29.57 in
Visibility 10.0 miles
Clouds Mostly Cloudy 800 ft
Overcast 2500 ft
Windchill 36 °F
Dew Point 39 °F
Humidity 93%
Rainfall 0.02 in
Snow Depth Not available.
UV 0 out of 16
Pollen Not available.
Air Quality Not available.
Flu Activity Sporadic
METAR PADQ 250453Z 08007KT 10SM BKN008 OVC025 05/04 A2956 RMK AO2 SLP011 T00500039

More Conditions Fewer Conditions

Pressure 29.57 in
Visibility 10.0 miles
Clouds Mostly Cloudy 800 ft
Overcast 2500 ft
Windchill 36 °F
Dew Point 39 °F
Humidity 93%
Rainfall 0.02 in
Snow Depth Not available.
UV 0 out of 16
Pollen Not available.
Air Quality Not available.
Flu Activity Sporadic
METAR PADQ 250453Z 08007KT 10SM BKN008 OVC025 05/04 A2956 RMK AO2 SLP011 T00500039

More Conditions Fewer Conditions

10-Day Weather Forecast

Almanac

Astronomy

Apr. 24, 2014 Rise Set
Actual Time 6:45 AM AKDT 9:45 PM AKDT
Civil Twilight 6:01 AM AKDT 10:30 PM AKDT
Nautical Twilight 5:02 AM AKDT 11:29 PM AKDT
Astronomical Twilight 3:38 AM AKDT 12:56 AM AKDT
Moon 5:01 AM AKDT (4/24) 4:20 PM AKDT (4/24)
Length of Visible Light 16h 28m
Length of Day
15h 00m
Tomorrow will be 4m 36s longer.
Waning Crescent, 19% of the Moon is Illuminated
Apr 25
Waning Crescent
Apr 29
New
May 6
First Quarter
May 14
Full
May 21
Last Quarter

Yesterday's Extremes

State Highs State Lows

Community

  • Deer in evening light
    Deer in evening light
  • Critter
    Critter
  • Jone Runs Falls
    Jone Runs Falls
  • Easter in Shenandoah National Park
    Easter in Shenandoah National Park
  • Sunset at Apalachicola Bay, Florida
    Sunset at Apalachicola Bay, Florida

WunderPhotos

Upload Photos

1,704,858 photos uploaded!

WunderBlogs® & News

Nearby

Snow Depth

Station Depth Elevation
Port Graham 0 in 300 ft
Nuka Glacier 27 in 1250 ft
Mcneil Canyon 2 in 1320 ft
MF Bradley River 16 in 2300 ft
Cooper Lake 17 in 1200 ft

Coastal Water Temperatures

Place Temperature
No Stations Reporting

Earthquake Activity

City Distance Mag. Time & Date
No recent earthquake activity has been reported nearby.
Minimum magnitude displayed is 2.5.

Nearby Weather Stations

There are no personal weather stations in this area.

What do you think?

We're not finished. Please let us know what you like, what you don't like, and what you are still missing.